sensor_id;sensor_type;location;lat;lon;timestamp;P1;durP1;ratioP1;P2;durP2;ratioP2
48897;SDS011;34713;50.038;20.000;2023-02-01T00:02:07;4.90;;;3.10;;
48897;SDS011;34713;50.038;20.000;2023-02-01T00:04:34;6.40;;;3.30;;
48897;SDS011;34713;50.038;20.000;2023-02-01T00:07:01;6.40;;;3.10;;
48897;SDS011;34713;50.038;20.000;2023-02-01T00:09:28;5.70;;;3.30;;
48897;SDS011;34713;50.038;20.000;2023-02-01T00:11:54;6.50;;;3.20;;
48897;SDS011;34713;50.038;20.000;2023-02-01T00:14:21;6.20;;;3.00;;
48897;SDS011;34713;50.038;20.000;2023-02-01T00:16:47;4.30;;;2.70;;
48897;SDS011;34713;50.038;20.000;2023-02-01T00:19:14;5.00;;;3.20;;
48897;SDS011;34713;50.038;20.000;2023-02-01T00:21:41;5.30;;;3.10;;
48897;SDS011;34713;50.038;20.000;2023-02-01T00:24:09;5.10;;;2.80;;
48897;SDS011;34713;50.038;20.000;2023-02-01T00:26:39;3.90;;;2.80;;
48897;SDS011;34713;50.038;20.000;2023-02-01T00:29:17;5.20;;;3.10;;
48897;SDS011;34713;50.038;20.000;2023-02-01T00:31:45;4.10;;;2.70;;
48897;SDS011;34713;50.038;20.000;2023-02-01T00:34:13;3.90;;;2.80;;
48897;SDS011;34713;50.038;20.000;2023-02-01T00:36:41;6.60;;;2.40;;
48897;SDS011;34713;50.038;20.000;2023-02-01T00:39:09;4.60;;;2.50;;
48897;SDS011;34713;50.038;20.000;2023-02-01T00:41:36;5.00;;;3.00;;
48897;SDS011;34713;50.038;20.000;2023-02-01T00:44:03;4.70;;;2.10;;
48897;SDS011;34713;50.038;20.000;2023-02-01T00:46:30;5.30;;;2.40;;
48897;SDS011;34713;50.038;20.000;2023-02-01T00:48:56;4.10;;;2.80;;
48897;SDS011;34713;50.038;20.000;2023-02-01T00:51:24;5.20;;;3.10;;
48897;SDS011;34713;50.038;20.000;2023-02-01T00:53:53;5.70;;;2.70;;
48897;SDS011;34713;50.038;20.000;2023-02-01T00:56:20;3.30;;;2.30;;
48897;SDS011;34713;50.038;20.000;2023-02-01T00:58:46;4.00;;;2.30;;
48897;SDS011;34713;50.038;20.000;2023-02-01T01:01:23;3.50;;;2.20;;
48897;SDS011;34713;50.038;20.000;2023-02-01T01:03:53;3.30;;;2.10;;
48897;SDS011;34713;50.038;20.000;2023-02-01T01:06:28;4.40;;;2.60;;
48897;SDS011;34713;50.038;20.000;2023-02-01T01:08:56;2.90;;;2.30;;
48897;SDS011;34713;50.038;20.000;2023-02-01T01:11:26;4.40;;;2.50;;
48897;SDS011;34713;50.038;20.000;2023-02-01T01:13:55;5.20;;;2.80;;
48897;SDS011;34713;50.038;20.000;2023-02-01T01:16:22;5.80;;;2.80;;
48897;SDS011;34713;50.038;20.000;2023-02-01T01:18:50;4.50;;;2.70;;
48897;SDS011;34713;50.038;20.000;2023-02-01T01:21:16;4.00;;;2.50;;
48897;SDS011;34713;50.038;20.000;2023-02-01T01:23:44;4.00;;;2.50;;
48897;SDS011;34713;50.038;20.000;2023-02-01T01:26:15;3.40;;;2.40;;
48897;SDS011;34713;50.038;20.000;2023-02-01T01:28:49;3.70;;;2.30;;
48897;SDS011;34713;50.038;20.000;2023-02-01T01:31:17;3.80;;;2.70;;
48897;SDS011;34713;50.038;20.000;2023-02-01T01:33:47;5.20;;;3.00;;
48897;SDS011;34713;50.038;20.000;2023-02-01T01:36:14;5.30;;;2.60;;
48897;SDS011;34713;50.038;20.000;2023-02-01T01:38:41;4.90;;;2.90;;
48897;SDS011;34713;50.038;20.000;2023-02-01T01:41:08;5.00;;;2.70;;
48897;SDS011;34713;50.038;20.000;2023-02-01T01:46:16;4.80;;;3.30;;
48897;SDS011;34713;50.038;20.000;2023-02-01T01:48:48;5.10;;;2.80;;
48897;SDS011;34713;50.038;20.000;2023-02-01T01:51:17;2.60;;;1.50;;
48897;SDS011;34713;50.038;20.000;2023-02-01T01:53:53;3.30;;;1.70;;
48897;SDS011;34713;50.038;20.000;2023-02-01T01:56:32;2.70;;;1.80;;
48897;SDS011;34713;50.038;20.000;2023-02-01T01:59:01;5.00;;;2.60;;
48897;SDS011;34713;50.038;20.000;2023-02-01T02:01:28;4.10;;;2.70;;
48897;SDS011;34713;50.038;20.000;2023-02-01T02:03:54;6.60;;;3.10;;
48897;SDS011;34713;50.038;20.000;2023-02-01T02:06:25;5.70;;;2.90;;
48897;SDS011;34713;50.038;20.000;2023-02-01T02:08:54;5.20;;;3.20;;
48897;SDS011;34713;50.038;20.000;2023-02-01T02:11:21;6.60;;;3.60;;
48897;SDS011;34713;50.038;20.000;2023-02-01T02:13:48;5.60;;;3.00;;
48897;SDS011;34713;50.038;20.000;2023-02-01T02:16:38;7.30;;;3.00;;
48897;SDS011;34713;50.038;20.000;2023-02-01T02:22:13;4.70;;;2.60;;
48897;SDS011;34713;50.038;20.000;2023-02-01T02:27:17;6.00;;;2.60;;
48897;SDS011;34713;50.038;20.000;2023-02-01T02:32:42;4.80;;;2.40;;
48897;SDS011;34713;50.038;20.000;2023-02-01T02:35:34;5.20;;;2.50;;
48897;SDS011;34713;50.038;20.000;2023-02-01T02:38:30;5.40;;;1.90;;
48897;SDS011;34713;50.038;20.000;2023-02-01T02:43:38;6.70;;;2.20;;
48897;SDS011;34713;50.038;20.000;2023-02-01T02:46:32;4.70;;;1.80;;
48897;SDS011;34713;50.038;20.000;2023-02-01T02:52:09;6.70;;;1.80;;
48897;SDS011;34713;50.038;20.000;2023-02-01T02:54:58;3.20;;;1.30;;
48897;SDS011;34713;50.038;20.000;2023-02-01T02:57:28;4.00;;;1.20;;
48897;SDS011;34713;50.038;20.000;2023-02-01T03:00:16;6.70;;;1.70;;
48897;SDS011;34713;50.038;20.000;2023-02-01T03:03:03;5.10;;;1.40;;
48897;SDS011;34713;50.038;20.000;2023-02-01T03:05:48;3.70;;;1.10;;
48897;SDS011;34713;50.038;20.000;2023-02-01T03:08:26;4.50;;;1.50;;
48897;SDS011;34713;50.038;20.000;2023-02-01T03:21:51;3.00;;;1.20;;
48897;SDS011;34713;50.038;20.000;2023-02-01T03:27:52;4.10;;;1.30;;
48897;SDS011;34713;50.038;20.000;2023-02-01T03:30:22;3.30;;;1.20;;
48897;SDS011;34713;50.038;20.000;2023-02-01T03:32:53;6.40;;;1.60;;
48897;SDS011;34713;50.038;20.000;2023-02-01T03:43:47;5.40;;;1.50;;
48897;SDS011;34713;50.038;20.000;2023-02-01T03:46:25;7.00;;;2.30;;
48897;SDS011;34713;50.038;20.000;2023-02-01T03:49:00;6.00;;;1.60;;
48897;SDS011;34713;50.038;20.000;2023-02-01T03:51:28;5.50;;;1.30;;
48897;SDS011;34713;50.038;20.000;2023-02-01T03:53:56;5.50;;;1.80;;
48897;SDS011;34713;50.038;20.000;2023-02-01T03:56:23;3.10;;;1.20;;
48897;SDS011;34713;50.038;20.000;2023-02-01T03:58:51;5.10;;;1.20;;
48897;SDS011;34713;50.038;20.000;2023-02-01T04:01:28;3.10;;;1.40;;
48897;SDS011;34713;50.038;20.000;2023-02-01T04:03:55;4.10;;;1.50;;
48897;SDS011;34713;50.038;20.000;2023-02-01T04:06:24;4.80;;;1.80;;
48897;SDS011;34713;50.038;20.000;2023-02-01T04:08:51;5.00;;;1.50;;
48897;SDS011;34713;50.038;20.000;2023-02-01T04:11:17;6.50;;;2.20;;
48897;SDS011;34713;50.038;20.000;2023-02-01T04:13:44;3.00;;;1.20;;
48897;SDS011;34713;50.038;20.000;2023-02-01T04:16:11;6.20;;;1.80;;
48897;SDS011;34713;50.038;20.000;2023-02-01T04:18:37;3.30;;;1.50;;
48897;SDS011;34713;50.038;20.000;2023-02-01T04:21:04;3.50;;;1.40;;
48897;SDS011;34713;50.038;20.000;2023-02-01T04:23:31;5.20;;;1.70;;
48897;SDS011;34713;50.038;20.000;2023-02-01T04:26:00;5.90;;;1.60;;
48897;SDS011;34713;50.038;20.000;2023-02-01T04:28:28;4.50;;;1.60;;
48897;SDS011;34713;50.038;20.000;2023-02-01T04:30:55;3.30;;;1.40;;
48897;SDS011;34713;50.038;20.000;2023-02-01T04:33:22;4.40;;;1.60;;
48897;SDS011;34713;50.038;20.000;2023-02-01T04:35:48;3.80;;;1.50;;
48897;SDS011;34713;50.038;20.000;2023-02-01T04:38:15;3.90;;;1.70;;
48897;SDS011;34713;50.038;20.000;2023-02-01T04:40:42;4.10;;;1.80;;
48897;SDS011;34713;50.038;20.000;2023-02-01T04:43:09;4.50;;;1.80;;
48897;SDS011;34713;50.038;20.000;2023-02-01T04:45:36;4.00;;;1.80;;
48897;SDS011;34713;50.038;20.000;2023-02-01T04:48:02;4.10;;;2.10;;
48897;SDS011;34713;50.038;20.000;2023-02-01T04:50:29;3.70;;;1.90;;
48897;SDS011;34713;50.038;20.000;2023-02-01T04:52:55;4.70;;;2.10;;
48897;SDS011;34713;50.038;20.000;2023-02-01T04:55:22;2.90;;;1.80;;
48897;SDS011;34713;50.038;20.000;2023-02-01T04:57:49;3.60;;;1.90;;
48897;SDS011;34713;50.038;20.000;2023-02-01T05:00:15;9.00;;;2.70;;
48897;SDS011;34713;50.038;20.000;2023-02-01T05:02:42;8.20;;;2.40;;
48897;SDS011;34713;50.038;20.000;2023-02-01T05:05:09;5.50;;;2.20;;
48897;SDS011;34713;50.038;20.000;2023-02-01T05:07:35;5.60;;;3.20;;
48897;SDS011;34713;50.038;20.000;2023-02-01T05:10:02;7.90;;;2.60;;
48897;SDS011;34713;50.038;20.000;2023-02-01T05:12:30;5.60;;;1.90;;
48897;SDS011;34713;50.038;20.000;2023-02-01T05:15:14;4.00;;;2.30;;
48897;SDS011;34713;50.038;20.000;2023-02-01T05:17:41;5.70;;;2.30;;
48897;SDS011;34713;50.038;20.000;2023-02-01T05:20:08;3.50;;;1.60;;
48897;SDS011;34713;50.038;20.000;2023-02-01T05:22:35;5.50;;;2.10;;
48897;SDS011;34713;50.038;20.000;2023-02-01T05:25:02;4.30;;;2.20;;
48897;SDS011;34713;50.038;20.000;2023-02-01T05:27:29;3.80;;;1.70;;
48897;SDS011;34713;50.038;20.000;2023-02-01T05:29:56;6.20;;;1.90;;
48897;SDS011;34713;50.038;20.000;2023-02-01T05:32:23;5.60;;;2.30;;
48897;SDS011;34713;50.038;20.000;2023-02-01T05:34:50;4.70;;;2.00;;
48897;SDS011;34713;50.038;20.000;2023-02-01T05:37:16;4.50;;;2.40;;
48897;SDS011;34713;50.038;20.000;2023-02-01T05:39:43;3.60;;;1.90;;
48897;SDS011;34713;50.038;20.000;2023-02-01T05:42:09;4.20;;;2.60;;
48897;SDS011;34713;50.038;20.000;2023-02-01T05:44:36;4.00;;;2.10;;
48897;SDS011;34713;50.038;20.000;2023-02-01T05:47:03;5.40;;;3.00;;
48897;SDS011;34713;50.038;20.000;2023-02-01T05:49:29;3.90;;;2.10;;
48897;SDS011;34713;50.038;20.000;2023-02-01T05:51:56;4.00;;;2.30;;
48897;SDS011;34713;50.038;20.000;2023-02-01T05:54:22;4.00;;;2.20;;
48897;SDS011;34713;50.038;20.000;2023-02-01T05:56:49;4.20;;;2.10;;
48897;SDS011;34713;50.038;20.000;2023-02-01T05:59:15;6.40;;;2.40;;
48897;SDS011;34713;50.038;20.000;2023-02-01T06:01:42;6.50;;;2.60;;
48897;SDS011;34713;50.038;20.000;2023-02-01T06:04:09;4.30;;;2.60;;
48897;SDS011;34713;50.038;20.000;2023-02-01T06:06:35;5.60;;;2.10;;
48897;SDS011;34713;50.038;20.000;2023-02-01T06:09:03;8.00;;;2.70;;
48897;SDS011;34713;50.038;20.000;2023-02-01T06:11:30;5.30;;;3.40;;
48897;SDS011;34713;50.038;20.000;2023-02-01T06:13:56;5.20;;;2.40;;
48897;SDS011;34713;50.038;20.000;2023-02-01T06:16:23;6.70;;;2.50;;
48897;SDS011;34713;50.038;20.000;2023-02-01T06:18:50;4.80;;;2.30;;
48897;SDS011;34713;50.038;20.000;2023-02-01T06:21:16;6.80;;;3.20;;
48897;SDS011;34713;50.038;20.000;2023-02-01T06:23:52;4.50;;;2.50;;
48897;SDS011;34713;50.038;20.000;2023-02-01T06:26:20;8.30;;;2.70;;
48897;SDS011;34713;50.038;20.000;2023-02-01T06:28:47;10.00;;;3.00;;
48897;SDS011;34713;50.038;20.000;2023-02-01T06:31:13;7.80;;;2.80;;
48897;SDS011;34713;50.038;20.000;2023-02-01T06:33:40;11.60;;;3.20;;
48897;SDS011;34713;50.038;20.000;2023-02-01T06:36:07;8.30;;;2.80;;
48897;SDS011;34713;50.038;20.000;2023-02-01T06:38:35;8.40;;;2.70;;
48897;SDS011;34713;50.038;20.000;2023-02-01T06:41:02;9.10;;;2.50;;
48897;SDS011;34713;50.038;20.000;2023-02-01T06:43:29;7.30;;;2.60;;
48897;SDS011;34713;50.038;20.000;2023-02-01T06:46:03;7.20;;;2.50;;
48897;SDS011;34713;50.038;20.000;2023-02-01T06:48:31;10.70;;;2.70;;
48897;SDS011;34713;50.038;20.000;2023-02-01T06:50:58;7.50;;;3.30;;
48897;SDS011;34713;50.038;20.000;2023-02-01T06:53:25;5.60;;;2.30;;
48897;SDS011;34713;50.038;20.000;2023-02-01T06:55:55;6.80;;;2.80;;
48897;SDS011;34713;50.038;20.000;2023-02-01T06:58:23;7.60;;;2.40;;
48897;SDS011;34713;50.038;20.000;2023-02-01T07:00:50;6.50;;;2.60;;
48897;SDS011;34713;50.038;20.000;2023-02-01T07:03:17;6.70;;;2.60;;
48897;SDS011;34713;50.038;20.000;2023-02-01T07:05:43;9.60;;;2.50;;
48897;SDS011;34713;50.038;20.000;2023-02-01T07:08:10;8.30;;;2.90;;
48897;SDS011;34713;50.038;20.000;2023-02-01T07:10:37;12.10;;;2.90;;
48897;SDS011;34713;50.038;20.000;2023-02-01T07:13:03;8.00;;;2.70;;
48897;SDS011;34713;50.038;20.000;2023-02-01T07:15:30;7.70;;;2.80;;
48897;SDS011;34713;50.038;20.000;2023-02-01T07:17:57;7.90;;;2.80;;
48897;SDS011;34713;50.038;20.000;2023-02-01T07:20:23;8.30;;;2.40;;
48897;SDS011;34713;50.038;20.000;2023-02-01T07:22:54;9.20;;;2.50;;
48897;SDS011;34713;50.038;20.000;2023-02-01T07:25:22;8.10;;;2.50;;
48897;SDS011;34713;50.038;20.000;2023-02-01T07:27:49;11.30;;;2.60;;
48897;SDS011;34713;50.038;20.000;2023-02-01T07:30:15;6.70;;;2.40;;
48897;SDS011;34713;50.038;20.000;2023-02-01T07:32:42;9.90;;;3.20;;
48897;SDS011;34713;50.038;20.000;2023-02-01T07:35:08;9.20;;;2.40;;
48897;SDS011;34713;50.038;20.000;2023-02-01T07:37:35;7.00;;;2.20;;
48897;SDS011;34713;50.038;20.000;2023-02-01T07:40:02;7.90;;;2.60;;
48897;SDS011;34713;50.038;20.000;2023-02-01T07:42:28;8.40;;;3.10;;
48897;SDS011;34713;50.038;20.000;2023-02-01T07:44:55;8.30;;;2.80;;
48897;SDS011;34713;50.038;20.000;2023-02-01T07:47:21;6.70;;;2.40;;
48897;SDS011;34713;50.038;20.000;2023-02-01T07:49:48;5.90;;;2.20;;
48897;SDS011;34713;50.038;20.000;2023-02-01T07:52:14;7.40;;;2.00;;
48897;SDS011;34713;50.038;20.000;2023-02-01T07:54:44;10.00;;;3.70;;
48897;SDS011;34713;50.038;20.000;2023-02-01T07:57:10;8.80;;;2.70;;
48897;SDS011;34713;50.038;20.000;2023-02-01T07:59:38;10.70;;;2.50;;
48897;SDS011;34713;50.038;20.000;2023-02-01T08:02:24;6.10;;;2.30;;
48897;SDS011;34713;50.038;20.000;2023-02-01T08:04:51;7.50;;;2.10;;
48897;SDS011;34713;50.038;20.000;2023-02-01T08:07:17;6.50;;;2.00;;
48897;SDS011;34713;50.038;20.000;2023-02-01T08:09:44;6.80;;;2.20;;
48897;SDS011;34713;50.038;20.000;2023-02-01T08:12:11;6.30;;;2.50;;
48897;SDS011;34713;50.038;20.000;2023-02-01T08:14:37;8.30;;;2.50;;
48897;SDS011;34713;50.038;20.000;2023-02-01T08:17:04;6.10;;;2.40;;
48897;SDS011;34713;50.038;20.000;2023-02-01T08:19:31;9.00;;;2.50;;
48897;SDS011;34713;50.038;20.000;2023-02-01T08:21:57;5.90;;;2.00;;
48897;SDS011;34713;50.038;20.000;2023-02-01T08:24:25;6.10;;;2.30;;
48897;SDS011;34713;50.038;20.000;2023-02-01T08:26:51;6.20;;;2.00;;
48897;SDS011;34713;50.038;20.000;2023-02-01T08:29:18;8.20;;;2.90;;
48897;SDS011;34713;50.038;20.000;2023-02-01T08:31:44;7.30;;;2.70;;
48897;SDS011;34713;50.038;20.000;2023-02-01T08:34:11;9.70;;;2.40;;
48897;SDS011;34713;50.038;20.000;2023-02-01T08:36:38;6.10;;;2.20;;
48897;SDS011;34713;50.038;20.000;2023-02-01T08:39:05;7.60;;;2.30;;
48897;SDS011;34713;50.038;20.000;2023-02-01T08:41:35;7.40;;;2.20;;
48897;SDS011;34713;50.038;20.000;2023-02-01T08:44:01;7.40;;;2.10;;
48897;SDS011;34713;50.038;20.000;2023-02-01T08:46:28;6.80;;;2.20;;
48897;SDS011;34713;50.038;20.000;2023-02-01T08:48:54;7.30;;;2.30;;
48897;SDS011;34713;50.038;20.000;2023-02-01T08:51:22;6.10;;;2.40;;
48897;SDS011;34713;50.038;20.000;2023-02-01T08:53:49;6.90;;;2.10;;
48897;SDS011;34713;50.038;20.000;2023-02-01T08:56:16;9.10;;;2.70;;
48897;SDS011;34713;50.038;20.000;2023-02-01T08:58:43;9.50;;;3.10;;
48897;SDS011;34713;50.038;20.000;2023-02-01T09:01:13;9.00;;;2.90;;
48897;SDS011;34713;50.038;20.000;2023-02-01T09:03:41;6.50;;;2.70;;
48897;SDS011;34713;50.038;20.000;2023-02-01T09:06:09;8.00;;;2.40;;
48897;SDS011;34713;50.038;20.000;2023-02-01T09:08:37;7.60;;;2.70;;
48897;SDS011;34713;50.038;20.000;2023-02-01T09:11:05;6.40;;;2.40;;
48897;SDS011;34713;50.038;20.000;2023-02-01T09:13:34;8.50;;;2.80;;
48897;SDS011;34713;50.038;20.000;2023-02-01T09:16:02;6.60;;;2.10;;
48897;SDS011;34713;50.038;20.000;2023-02-01T09:18:29;6.70;;;2.50;;
48897;SDS011;34713;50.038;20.000;2023-02-01T09:20:56;6.50;;;3.10;;
48897;SDS011;34713;50.038;20.000;2023-02-01T09:23:23;6.30;;;2.50;;
48897;SDS011;34713;50.038;20.000;2023-02-01T09:25:49;5.50;;;2.20;;
48897;SDS011;34713;50.038;20.000;2023-02-01T09:28:19;8.20;;;2.40;;
48897;SDS011;34713;50.038;20.000;2023-02-01T09:30:46;5.90;;;2.40;;
48897;SDS011;34713;50.038;20.000;2023-02-01T09:33:12;5.10;;;2.30;;
48897;SDS011;34713;50.038;20.000;2023-02-01T09:35:39;7.50;;;2.50;;
48897;SDS011;34713;50.038;20.000;2023-02-01T09:38:06;7.70;;;2.80;;
48897;SDS011;34713;50.038;20.000;2023-02-01T09:40:33;7.20;;;2.90;;
48897;SDS011;34713;50.038;20.000;2023-02-01T09:43:11;6.80;;;2.60;;
48897;SDS011;34713;50.038;20.000;2023-02-01T09:48:45;8.20;;;2.90;;
48897;SDS011;34713;50.038;20.000;2023-02-01T09:51:16;6.00;;;3.00;;
48897;SDS011;34713;50.038;20.000;2023-02-01T09:53:48;5.70;;;2.30;;
48897;SDS011;34713;50.038;20.000;2023-02-01T09:56:26;10.70;;;2.90;;
48897;SDS011;34713;50.038;20.000;2023-02-01T09:59:01;6.30;;;2.80;;
48897;SDS011;34713;50.038;20.000;2023-02-01T10:01:50;7.70;;;2.60;;
48897;SDS011;34713;50.038;20.000;2023-02-01T10:04:17;9.30;;;2.90;;
48897;SDS011;34713;50.038;20.000;2023-02-01T10:06:50;7.60;;;2.90;;
48897;SDS011;34713;50.038;20.000;2023-02-01T10:13:23;12.70;;;2.90;;
48897;SDS011;34713;50.038;20.000;2023-02-01T10:15:39;7.20;;;2.80;;
48897;SDS011;34713;50.038;20.000;2023-02-01T10:18:31;5.50;;;2.40;;
48897;SDS011;34713;50.038;20.000;2023-02-01T10:26:58;6.70;;;2.40;;
48897;SDS011;34713;50.038;20.000;2023-02-01T10:29:33;7.00;;;2.30;;
48897;SDS011;34713;50.038;20.000;2023-02-01T10:32:02;4.50;;;1.90;;
48897;SDS011;34713;50.038;20.000;2023-02-01T10:34:33;6.20;;;2.30;;
48897;SDS011;34713;50.038;20.000;2023-02-01T10:37:04;7.00;;;2.70;;
48897;SDS011;34713;50.038;20.000;2023-02-01T10:39:34;7.20;;;2.50;;
48897;SDS011;34713;50.038;20.000;2023-02-01T10:42:03;7.50;;;2.80;;
48897;SDS011;34713;50.038;20.000;2023-02-01T10:44:30;6.30;;;2.80;;
48897;SDS011;34713;50.038;20.000;2023-02-01T10:46:57;8.70;;;2.60;;
48897;SDS011;34713;50.038;20.000;2023-02-01T10:49:29;6.20;;;3.20;;
48897;SDS011;34713;50.038;20.000;2023-02-01T10:54:42;8.20;;;2.60;;
48897;SDS011;34713;50.038;20.000;2023-02-01T10:57:09;8.20;;;2.20;;
48897;SDS011;34713;50.038;20.000;2023-02-01T10:59:37;9.10;;;2.70;;
48897;SDS011;34713;50.038;20.000;2023-02-01T11:05:14;6.50;;;2.70;;
48897;SDS011;34713;50.038;20.000;2023-02-01T11:07:49;9.10;;;2.60;;
48897;SDS011;34713;50.038;20.000;2023-02-01T11:10:35;7.00;;;2.50;;
48897;SDS011;34713;50.038;20.000;2023-02-01T11:13:04;9.50;;;2.80;;
48897;SDS011;34713;50.038;20.000;2023-02-01T11:15:31;8.10;;;2.50;;
48897;SDS011;34713;50.038;20.000;2023-02-01T11:17:57;6.20;;;2.50;;
48897;SDS011;34713;50.038;20.000;2023-02-01T11:20:40;6.30;;;2.70;;
48897;SDS011;34713;50.038;20.000;2023-02-01T11:23:14;10.80;;;4.00;;
48897;SDS011;34713;50.038;20.000;2023-02-01T11:25:50;7.60;;;3.00;;
48897;SDS011;34713;50.038;20.000;2023-02-01T11:28:19;5.90;;;2.60;;
48897;SDS011;34713;50.038;20.000;2023-02-01T11:30:48;9.90;;;2.80;;
48897;SDS011;34713;50.038;20.000;2023-02-01T11:33:16;8.30;;;3.00;;
48897;SDS011;34713;50.038;20.000;2023-02-01T11:35:45;6.70;;;2.60;;
48897;SDS011;34713;50.038;20.000;2023-02-01T11:38:29;9.60;;;3.20;;
48897;SDS011;34713;50.038;20.000;2023-02-01T11:41:13;9.00;;;3.20;;
48897;SDS011;34713;50.038;20.000;2023-02-01T11:43:50;6.50;;;2.40;;
48897;SDS011;34713;50.038;20.000;2023-02-01T11:46:27;9.30;;;3.10;;
48897;SDS011;34713;50.038;20.000;2023-02-01T11:48:56;8.60;;;2.30;;
48897;SDS011;34713;50.038;20.000;2023-02-01T11:51:33;9.80;;;2.50;;
48897;SDS011;34713;50.038;20.000;2023-02-01T12:05:25;7.30;;;2.30;;
48897;SDS011;34713;50.038;20.000;2023-02-01T12:10:59;9.10;;;3.10;;
48897;SDS011;34713;50.038;20.000;2023-02-01T12:21:45;7.70;;;3.00;;
48897;SDS011;34713;50.038;20.000;2023-02-01T12:24:28;8.90;;;3.40;;
48897;SDS011;34713;50.038;20.000;2023-02-01T12:27:16;9.80;;;3.30;;
48897;SDS011;34713;50.038;20.000;2023-02-01T12:44:12;7.80;;;3.30;;
48897;SDS011;34713;50.038;20.000;2023-02-01T12:46:39;8.90;;;3.40;;
48897;SDS011;34713;50.038;20.000;2023-02-01T12:51:44;7.90;;;3.00;;
48897;SDS011;34713;50.038;20.000;2023-02-01T12:57:18;7.40;;;2.90;;
48897;SDS011;34713;50.038;20.000;2023-02-01T13:00:02;8.30;;;3.10;;
48897;SDS011;34713;50.038;20.000;2023-02-01T13:11:42;9.00;;;3.20;;
48897;SDS011;34713;50.038;20.000;2023-02-01T13:17:06;9.10;;;3.00;;
48897;SDS011;34713;50.038;20.000;2023-02-01T13:19:50;7.30;;;2.90;;
48897;SDS011;34713;50.038;20.000;2023-02-01T13:22:37;9.20;;;3.00;;
48897;SDS011;34713;50.038;20.000;2023-02-01T13:27:36;7.40;;;3.10;;
48897;SDS011;34713;50.038;20.000;2023-02-01T13:35:41;8.30;;;3.30;;
48897;SDS011;34713;50.038;20.000;2023-02-01T13:43:32;7.40;;;3.20;;
48897;SDS011;34713;50.038;20.000;2023-02-01T13:46:03;11.40;;;4.10;;
48897;SDS011;34713;50.038;20.000;2023-02-01T13:48:49;11.10;;;3.50;;
48897;SDS011;34713;50.038;20.000;2023-02-01T13:51:28;8.50;;;3.50;;
48897;SDS011;34713;50.038;20.000;2023-02-01T13:53:57;7.20;;;3.10;;
48897;SDS011;34713;50.038;20.000;2023-02-01T13:56:24;8.10;;;2.90;;
48897;SDS011;34713;50.038;20.000;2023-02-01T13:58:51;6.90;;;3.30;;
48897;SDS011;34713;50.038;20.000;2023-02-01T14:03:55;6.70;;;2.70;;
48897;SDS011;34713;50.038;20.000;2023-02-01T14:09:14;7.20;;;2.60;;
48897;SDS011;34713;50.038;20.000;2023-02-01T14:12:41;8.30;;;2.80;;
48897;SDS011;34713;50.038;20.000;2023-02-01T14:15:18;5.50;;;2.70;;
48897;SDS011;34713;50.038;20.000;2023-02-01T14:17:54;6.70;;;2.90;;
48897;SDS011;34713;50.038;20.000;2023-02-01T14:23:17;7.40;;;3.00;;
48897;SDS011;34713;50.038;20.000;2023-02-01T14:25:45;6.10;;;2.70;;
48897;SDS011;34713;50.038;20.000;2023-02-01T14:28:24;7.60;;;3.20;;
48897;SDS011;34713;50.038;20.000;2023-02-01T14:30:53;4.80;;;2.50;;
48897;SDS011;34713;50.038;20.000;2023-02-01T14:33:21;5.00;;;2.70;;
48897;SDS011;34713;50.038;20.000;2023-02-01T14:38:49;6.30;;;2.60;;
48897;SDS011;34713;50.038;20.000;2023-02-01T14:49:33;6.00;;;2.50;;
48897;SDS011;34713;50.038;20.000;2023-02-01T14:52:04;4.10;;;2.30;;
48897;SDS011;34713;50.038;20.000;2023-02-01T14:54:32;4.30;;;2.40;;
48897;SDS011;34713;50.038;20.000;2023-02-01T14:56:59;5.20;;;2.40;;
48897;SDS011;34713;50.038;20.000;2023-02-01T14:59:26;4.90;;;2.10;;
48897;SDS011;34713;50.038;20.000;2023-02-01T15:01:59;4.20;;;2.00;;
48897;SDS011;34713;50.038;20.000;2023-02-01T15:04:27;3.90;;;2.30;;
48897;SDS011;34713;50.038;20.000;2023-02-01T15:06:54;5.00;;;2.20;;
48897;SDS011;34713;50.038;20.000;2023-02-01T15:09:27;4.40;;;2.70;;
48897;SDS011;34713;50.038;20.000;2023-02-01T15:14:37;5.30;;;2.60;;
48897;SDS011;34713;50.038;20.000;2023-02-01T15:17:16;3.80;;;2.10;;
48897;SDS011;34713;50.038;20.000;2023-02-01T15:19:57;4.40;;;2.20;;
48897;SDS011;34713;50.038;20.000;2023-02-01T15:22:26;4.50;;;2.40;;
48897;SDS011;34713;50.038;20.000;2023-02-01T15:24:55;5.30;;;2.00;;
48897;SDS011;34713;50.038;20.000;2023-02-01T15:27:23;4.50;;;2.30;;
48897;SDS011;34713;50.038;20.000;2023-02-01T15:29:50;3.90;;;2.40;;
48897;SDS011;34713;50.038;20.000;2023-02-01T15:34:57;4.20;;;2.50;;
48897;SDS011;34713;50.038;20.000;2023-02-01T15:37:24;4.70;;;2.90;;
48897;SDS011;34713;50.038;20.000;2023-02-01T15:42:37;5.00;;;2.60;;
48897;SDS011;34713;50.038;20.000;2023-02-01T15:45:17;4.50;;;2.70;;
48897;SDS011;34713;50.038;20.000;2023-02-01T15:47:54;5.60;;;3.60;;
48897;SDS011;34713;50.038;20.000;2023-02-01T15:50:22;4.60;;;3.10;;
48897;SDS011;34713;50.038;20.000;2023-02-01T15:52:50;7.90;;;3.30;;
48897;SDS011;34713;50.038;20.000;2023-02-01T15:55:19;5.70;;;3.20;;
48897;SDS011;34713;50.038;20.000;2023-02-01T15:57:47;4.30;;;2.40;;
48897;SDS011;34713;50.038;20.000;2023-02-01T16:00:30;3.70;;;2.80;;
48897;SDS011;34713;50.038;20.000;2023-02-01T16:03:00;6.40;;;3.90;;
48897;SDS011;34713;50.038;20.000;2023-02-01T16:05:31;5.60;;;2.90;;
48897;SDS011;34713;50.038;20.000;2023-02-01T16:08:10;7.90;;;3.70;;
48897;SDS011;34713;50.038;20.000;2023-02-01T16:10:44;8.70;;;3.90;;
48897;SDS011;34713;50.038;20.000;2023-02-01T16:13:12;7.20;;;3.90;;
48897;SDS011;34713;50.038;20.000;2023-02-01T16:15:39;6.40;;;3.70;;
48897;SDS011;34713;50.038;20.000;2023-02-01T16:18:06;6.70;;;3.70;;
48897;SDS011;34713;50.038;20.000;2023-02-01T16:20:34;7.10;;;4.00;;
48897;SDS011;34713;50.038;20.000;2023-02-01T16:23:02;7.60;;;4.20;;
48897;SDS011;34713;50.038;20.000;2023-02-01T16:25:29;7.00;;;4.40;;
48897;SDS011;34713;50.038;20.000;2023-02-01T16:27:55;7.00;;;4.00;;
48897;SDS011;34713;50.038;20.000;2023-02-01T16:30:22;8.70;;;4.40;;
48897;SDS011;34713;50.038;20.000;2023-02-01T16:32:53;5.90;;;3.90;;
48897;SDS011;34713;50.038;20.000;2023-02-01T16:37:52;8.70;;;4.60;;
48897;SDS011;34713;50.038;20.000;2023-02-01T16:40:20;8.10;;;4.50;;
48897;SDS011;34713;50.038;20.000;2023-02-01T16:42:51;7.30;;;4.70;;
48897;SDS011;34713;50.038;20.000;2023-02-01T16:45:18;8.20;;;4.70;;
48897;SDS011;34713;50.038;20.000;2023-02-01T16:47:46;10.60;;;5.00;;
48897;SDS011;34713;50.038;20.000;2023-02-01T16:50:15;11.40;;;5.10;;
48897;SDS011;34713;50.038;20.000;2023-02-01T16:52:42;10.00;;;5.10;;
48897;SDS011;34713;50.038;20.000;2023-02-01T16:55:16;8.40;;;5.00;;
48897;SDS011;34713;50.038;20.000;2023-02-01T16:57:43;7.10;;;4.50;;
48897;SDS011;34713;50.038;20.000;2023-02-01T17:00:11;9.90;;;4.80;;
48897;SDS011;34713;50.038;20.000;2023-02-01T17:02:38;9.20;;;4.70;;
48897;SDS011;34713;50.038;20.000;2023-02-01T17:05:05;7.90;;;4.50;;
48897;SDS011;34713;50.038;20.000;2023-02-01T17:07:32;6.90;;;4.20;;
48897;SDS011;34713;50.038;20.000;2023-02-01T17:09:59;8.30;;;4.80;;
48897;SDS011;34713;50.038;20.000;2023-02-01T17:12:29;10.00;;;5.20;;
48897;SDS011;34713;50.038;20.000;2023-02-01T17:14:58;12.40;;;4.50;;
48897;SDS011;34713;50.038;20.000;2023-02-01T17:17:25;9.80;;;5.10;;
48897;SDS011;34713;50.038;20.000;2023-02-01T17:19:56;8.00;;;4.80;;
48897;SDS011;34713;50.038;20.000;2023-02-01T17:22:23;11.20;;;5.40;;
48897;SDS011;34713;50.038;20.000;2023-02-01T17:24:49;8.20;;;4.90;;
48897;SDS011;34713;50.038;20.000;2023-02-01T17:27:16;10.60;;;5.50;;